Time;durP1;ratioP1;P1;durP2;ratioP2;P2;SDS_P1;SDS_P2;PMS_P1;PMS_P2;Temp;Humidity;BMP_temperature;BMP_pressure;BME280_temperature;BME280_humidity;BME280_pressure;Samples;Min_cycle;Max_cycle;Signal;HPM_P1;HPM_P2
2023/06/18 00:00:45;;;;;;;11.25;5.70;;;;;;;22.31;57.59;100669.78;4991834;28;20054;-77
2023/06/18 00:03:13;;;;;;;9.40;5.82;;;;;;;22.14;58.49;100658.63;4992822;28;20049;-77
2023/06/18 00:05:41;;;;;;;8.30;6.13;;;;;;;21.98;57.55;100661.41;4992475;28;20086;-77
2023/06/18 00:08:09;;;;;;;8.05;5.32;;;;;;;21.98;56.15;100660.56;4975023;28;20050;-77
2023/06/18 00:10:37;;;;;;;9.77;6.30;;;;;;;21.97;53.33;100659.78;4992699;28;20046;-77
2023/06/18 00:13:05;;;;;;;7.57;5.28;;;;;;;22.12;53.75;100663.75;4975788;28;20381;-77
2023/06/18 00:15:33;;;;;;;7.97;5.15;;;;;;;22.26;53.87;100668.91;4991765;28;20061;-77
2023/06/18 00:18:02;;;;;;;7.55;5.20;;;;;;;22.34;53.56;100669.09;4992493;28;20046;-77
2023/06/18 00:20:32;;;;;;;10.65;5.20;;;;;;;22.29;52.55;100661.81;4992333;28;20049;-77
2023/06/18 00:23:01;;;;;;;8.00;5.20;;;;;;;22.47;51.27;100675.38;4976352;28;20046;-77
2023/06/18 00:25:29;;;;;;;9.63;5.50;;;;;;;22.45;52.85;100678.53;4992627;28;20042;-77
2023/06/18 00:27:57;;;;;;;10.23;5.93;;;;;;;22.32;54.49;100665.84;4992263;28;20374;-77
2023/06/18 00:30:25;;;;;;;11.07;5.68;;;;;;;22.22;55.57;100656.03;4992814;28;20046;-77
2023/06/18 00:32:54;;;;;;;8.07;5.70;;;;;;;22.01;56.96;100663.47;4975251;28;20053;-77
2023/06/18 00:35:22;;;;;;;7.63;5.82;;;;;;;21.95;55.61;100666.88;4974744;28;20493;-77
2023/06/18 00:37:52;;;;;;;7.95;5.28;;;;;;;21.90;55.59;100662.38;4975052;28;20042;-77
2023/06/18 00:40:20;;;;;;;8.07;5.60;;;;;;;21.85;55.41;100659.84;4993061;28;20061;-77
2023/06/18 00:42:52;;;;;;;10.15;5.88;;;;;;;21.82;56.45;100663.34;4992929;28;20058;-77
2023/06/18 00:45:21;;;;;;;9.45;5.72;;;;;;;21.94;56.48;100662.47;4991961;28;20042;-77
2023/06/18 00:47:49;;;;;;;13.23;6.53;;;;;;;21.87;57.18;100663.91;4992255;28;20061;-77
2023/06/18 00:50:21;;;;;;;9.00;5.63;;;;;;;21.74;57.14;100665.09;4955402;28;20057;-77
2023/06/18 00:52:51;;;;;;;10.10;5.70;;;;;;;21.70;57.18;100656.66;4992241;28;20046;-77
2023/06/18 00:55:20;;;;;;;5.82;5.07;;;;;;;21.66;56.60;100658.50;4991939;28;20038;-77
2023/06/18 00:57:59;;;;;;;6.82;5.35;;;;;;;21.64;56.73;100660.03;4992279;28;20038;-77
2023/06/18 01:00:33;;;;;;;7.07;5.57;;;;;;;21.64;58.94;100660.81;4974852;28;20062;-77
2023/06/18 01:03:03;;;;;;;9.53;5.50;;;;;;;21.56;58.64;100665.38;4974683;28;20046;-77
2023/06/18 01:05:33;;;;;;;8.10;5.63;;;;;;;21.39;58.82;100660.91;4994019;28;20047;-77
2023/06/18 01:08:06;;;;;;;7.97;5.60;;;;;;;21.33;60.06;100656.75;4995832;28;20050;-77
2023/06/18 01:10:39;;;;;;;7.97;5.75;;;;;;;21.26;61.02;100660.13;4996019;28;20057;-77
2023/06/18 01:13:09;;;;;;;10.18;5.85;;;;;;;21.20;61.74;100655.97;4964950;28;20034;-77
2023/06/18 01:15:38;;;;;;;8.52;6.45;;;;;;;21.09;62.20;100661.22;4978418;28;20382;-77
2023/06/18 01:18:07;;;;;;;16.67;6.38;;;;;;;21.11;63.65;100661.66;4996046;28;20054;-77
2023/06/18 01:20:44;;;;;;;8.88;6.68;;;;;;;21.05;63.31;100658.31;4995892;28;20053;-77
2023/06/18 01:23:27;;;;;;;9.80;6.47;;;;;;;20.93;64.45;100653.56;4995939;28;20061;-77
2023/06/18 01:25:59;;;;;;;10.38;6.00;;;;;;;20.89;63.11;100655.44;4995927;28;20043;-77
2023/06/18 01:28:29;;;;;;;10.70;6.93;;;;;;;21.00;63.15;100672.47;4995726;28;20054;-77
2023/06/18 01:30:58;;;;;;;9.95;6.72;;;;;;;20.87;63.12;100648.59;4978298;28;20065;-77
2023/06/18 01:33:26;;;;;;;7.50;5.97;;;;;;;20.88;63.14;100648.22;4958629;28;20051;-77
2023/06/18 01:35:54;;;;;;;8.73;5.78;;;;;;;20.78;63.10;100655.06;4989679;28;20053;-77
2023/06/18 01:38:38;;;;;;;9.43;5.95;;;;;;;20.73;63.78;100669.19;4977759;28;20054;-77
2023/06/18 01:41:14;;;;;;;10.93;5.90;;;;;;;20.63;64.11;100653.00;4995545;28;20046;-77
2023/06/18 01:43:48;;;;;;;8.95;5.70;;;;;;;20.58;64.13;100659.56;4978066;28;20047;-77
2023/06/18 01:46:23;;;;;;;7.13;5.90;;;;;;;20.67;63.81;100659.44;4960786;28;20058;-77
2023/06/18 01:49:03;;;;;;;11.88;6.47;;;;;;;20.65;63.63;100651.47;4995607;28;20050;-77
2023/06/18 01:51:32;;;;;;;8.98;5.68;;;;;;;20.63;63.13;100656.56;4995411;28;20048;-77
2023/06/18 01:54:03;;;;;;;9.55;6.60;;;;;;;20.65;63.51;100656.22;4995608;28;20485;-77
2023/06/18 01:56:32;;;;;;;6.55;5.53;;;;;;;20.67;62.86;100657.50;4995167;28;20411;-77
2023/06/18 01:59:02;;;;;;;9.23;6.15;;;;;;;20.68;63.93;100656.34;4978092;28;20046;-77
2023/06/18 02:01:31;;;;;;;9.52;6.18;;;;;;;20.61;62.67;100658.88;4995349;28;20050;-77
2023/06/18 02:03:59;;;;;;;6.97;5.63;;;;;;;20.56;62.53;100658.31;4994955;28;20057;-77
2023/06/18 02:06:27;;;;;;;8.70;6.00;;;;;;;20.65;61.97;100651.47;4994484;28;20493;-77
2023/06/18 02:08:57;;;;;;;8.73;5.63;;;;;;;20.68;63.24;100666.66;4977101;28;20038;-77
2023/06/18 02:11:25;;;;;;;9.25;5.78;;;;;;;20.75;62.99;100677.19;4977537;28;20049;-77
2023/06/18 02:13:53;;;;;;;7.32;5.93;;;;;;;20.71;62.09;100667.94;4977302;28;20043;-77
2023/06/18 02:16:21;;;;;;;9.90;6.70;;;;;;;20.83;61.15;100679.06;4976747;28;20065;-77
2023/06/18 02:18:50;;;;;;;9.07;5.85;;;;;;;20.81;61.50;100665.50;4992772;28;20425;-78
2023/06/18 02:21:18;;;;;;;8.80;5.68;;;;;;;20.77;61.98;100680.44;4994619;28;20040;-77
2023/06/18 02:23:46;;;;;;;10.02;6.28;;;;;;;20.82;62.35;100694.09;4994906;28;20049;-77
2023/06/18 02:26:16;;;;;;;7.75;6.50;;;;;;;20.77;63.16;100686.00;4994750;28;20042;-77
2023/06/18 02:28:45;;;;;;;7.95;6.72;;;;;;;20.62;63.34;100679.97;4995646;28;20405;-77
2023/06/18 02:31:13;;;;;;;7.97;6.20;;;;;;;20.55;62.16;100690.84;4995028;28;20062;-77
2023/06/18 02:33:41;;;;;;;8.65;6.20;;;;;;;20.53;62.82;100693.97;4961349;28;20050;-77
2023/06/18 02:36:10;;;;;;;9.95;6.35;;;;;;;20.57;63.07;100699.66;4994485;28;20045;-77
2023/06/18 02:38:40;;;;;;;7.80;5.75;;;;;;;20.49;62.84;100692.25;4977933;28;20058;-77
2023/06/18 02:41:08;;;;;;;19.73;6.72;;;;;;;20.50;63.59;100693.84;4994862;28;20038;-77
2023/06/18 02:43:36;;;;;;;8.57;6.78;;;;;;;20.51;63.14;100701.03;4977198;28;20050;-77
2023/06/18 02:46:04;;;;;;;11.32;6.70;;;;;;;20.49;63.17;100701.38;4994523;28;20057;-77
2023/06/18 02:48:32;;;;;;;9.15;6.55;;;;;;;20.43;63.51;100693.63;4994344;28;20050;-77
2023/06/18 02:51:00;;;;;;;8.13;6.35;;;;;;;20.47;62.79;100703.69;4994014;28;20046;-77
2023/06/18 02:53:28;;;;;;;8.27;6.05;;;;;;;20.54;62.58;100714.25;4976937;28;20038;-77
2023/06/18 02:55:56;;;;;;;8.55;7.07;;;;;;;20.46;63.77;100710.41;4976555;28;20038;-77
2023/06/18 02:58:30;;;;;;;10.18;6.63;;;;;;;20.40;63.54;100711.78;4975811;28;20050;-77
2023/06/18 03:01:04;;;;;;;8.20;5.90;;;;;;;20.37;64.11;100716.06;4976636;28;20058;-77
2023/06/18 03:03:39;;;;;;;7.30;5.85;;;;;;;20.35;63.43;100703.66;4976591;28;20405;-77
2023/06/18 03:06:07;;;;;;;9.40;6.47;;;;;;;20.39;63.67;100712.94;4993988;28;20046;-77
2023/06/18 03:08:37;;;;;;;7.68;5.63;;;;;;;20.33;63.48;100700.44;4976570;28;20046;-77
2023/06/18 03:11:05;;;;;;;8.63;5.95;;;;;;;20.40;63.33;100709.81;4994434;28;20393;-77
2023/06/18 03:13:34;;;;;;;7.80;5.68;;;;;;;20.38;64.58;100701.00;4976268;28;20050;-77
2023/06/18 03:16:03;;;;;;;8.57;6.78;;;;;;;20.37;64.36;100698.56;4976523;28;20050;-77
2023/06/18 03:18:33;;;;;;;7.40;6.05;;;;;;;20.43;64.55;100704.75;4977547;28;20050;-77
2023/06/18 03:21:02;;;;;;;8.23;5.90;;;;;;;20.37;64.53;100707.72;4957355;28;20417;-77
2023/06/18 03:23:31;;;;;;;10.52;7.03;;;;;;;20.24;65.55;100704.09;4957018;28;20043;-77
2023/06/18 03:26:03;;;;;;;9.50;5.72;;;;;;;20.08;65.61;100709.50;4956933;28;20054;-77
2023/06/18 03:28:33;;;;;;;10.25;6.28;;;;;;;20.21;64.89;100709.53;4955963;28;20054;-77
2023/06/18 03:31:02;;;;;;;7.35;6.03;;;;;;;20.20;63.96;100705.13;4956245;28;20069;-77
2023/06/18 03:33:32;;;;;;;9.52;6.38;;;;;;;20.26;63.38;100703.75;4975271;28;20046;-77
2023/06/18 03:36:00;;;;;;;9.38;6.30;;;;;;;20.33;63.41;100717.91;4975658;28;20057;-77
2023/06/18 03:38:31;;;;;;;9.10;6.43;;;;;;;20.35;63.79;100715.63;4976145;28;20046;-77
2023/06/18 03:41:03;;;;;;;8.68;5.93;;;;;;;20.36;64.11;100716.41;4975976;28;20054;-77
2023/06/18 03:43:31;;;;;;;7.97;5.75;;;;;;;20.33;65.00;100715.13;4976068;28;20057;-77
2023/06/18 03:46:00;;;;;;;8.93;5.82;;;;;;;20.44;64.93;100717.47;4976363;28;20110;-77
2023/06/18 03:48:29;;;;;;;9.13;6.10;;;;;;;20.51;65.67;100718.53;4976352;28;20039;-75
2023/06/18 03:50:57;;;;;;;8.70;5.80;;;;;;;20.51;65.00;100723.28;4975216;28;20054;-75
2023/06/18 03:53:27;;;;;;;8.77;6.25;;;;;;;20.56;65.61;100728.63;4975507;28;20073;-75
2023/06/18 03:55:55;;;;;;;8.52;5.88;;;;;;;20.54;66.32;100728.16;4993020;28;20045;-75
2023/06/18 03:58:23;;;;;;;7.35;6.00;;;;;;;20.45;66.44;100719.09;4975984;28;20046;-75
2023/06/18 04:00:52;;;;;;;7.60;5.68;;;;;;;20.51;66.81;100728.81;4975138;28;20409;-75
2023/06/18 04:03:20;;;;;;;9.55;6.28;;;;;;;20.40;66.45;100732.03;4992397;28;20073;-75
2023/06/18 04:05:49;;;;;;;10.70;6.70;;;;;;;20.45;64.63;100733.81;4992678;28;20047;-75
2023/06/18 04:08:17;;;;;;;12.85;6.32;;;;;;;20.49;63.36;100731.16;4992166;28;20054;-75
2023/06/18 04:10:47;;;;;;;8.40;6.13;;;;;;;20.57;63.86;100735.00;4975157;28;20461;-75
2023/06/18 04:13:15;;;;;;;9.68;6.60;;;;;;;20.54;63.88;100725.38;4974900;28;20042;-74
2023/06/18 04:15:44;;;;;;;10.13;6.50;;;;;;;20.69;63.44;100746.13;4974920;28;20050;-75
2023/06/18 04:18:14;;;;;;;9.77;6.75;;;;;;;20.64;63.69;100744.38;4975466;28;20054;-75
2023/06/18 04:20:43;;;;;;;10.07;6.75;;;;;;;20.66;63.14;100750.41;4975197;28;20054;-75
2023/06/18 04:23:13;;;;;;;11.15;7.40;;;;;;;20.51;63.91;100745.50;4975319;28;20042;-77
2023/06/18 04:25:42;;;;;;;10.77;6.78;;;;;;;20.58;64.48;100756.88;4976187;28;20057;-77
2023/06/18 04:28:11;;;;;;;11.80;7.82;;;;;;;20.65;64.94;100751.56;4976636;28;20397;-77
2023/06/18 04:30:40;;;;;;;9.32;6.82;;;;;;;20.67;64.10;100746.47;4974918;28;20050;-77
2023/06/18 04:33:08;;;;;;;11.32;7.90;;;;;;;20.77;65.17;100747.19;4975224;28;20050;-77
2023/06/18 04:35:37;;;;;;;10.48;7.05;;;;;;;20.71;65.44;100749.38;4959982;28;20042;-77
2023/06/18 04:38:07;;;;;;;15.90;7.28;;;;;;;20.82;65.94;100752.50;4974730;28;20042;-77
2023/06/18 04:40:35;;;;;;;9.43;7.32;;;;;;;20.80;66.65;100757.59;4979097;28;20061;-76
2023/06/18 04:43:03;;;;;;;12.77;8.40;;;;;;;20.76;66.79;100745.53;4978826;28;20042;-77
2023/06/18 04:45:37;;;;;;;12.20;7.78;;;;;;;20.80;68.25;100757.59;4978664;28;20046;-77
2023/06/18 04:48:08;;;;;;;12.52;7.90;;;;;;;20.92;66.87;100759.63;4978810;28;20380;-77
2023/06/18 04:50:38;;;;;;;14.77;8.00;;;;;;;21.08;66.56;100759.75;4978843;28;20050;-77
2023/06/18 04:53:07;;;;;;;9.35;7.05;;;;;;;21.24;65.72;100759.03;4978775;28;20047;-76
2023/06/18 04:55:37;;;;;;;12.38;8.82;;;;;;;21.06;66.89;100748.97;4962069;28;20054;-77
2023/06/18 04:58:05;;;;;;;12.93;8.23;;;;;;;21.18;66.91;100762.06;4994813;28;20038;-77
2023/06/18 05:00:34;;;;;;;10.45;7.90;;;;;;;21.25;64.65;100752.31;4978470;28;20053;-77
2023/06/18 05:03:04;;;;;;;12.20;7.47;;;;;;;21.42;64.14;100749.28;4978729;28;20047;-77
2023/06/18 05:05:32;;;;;;;8.45;6.85;;;;;;;21.52;63.37;100741.59;4980981;28;20053;-77
2023/06/18 05:08:00;;;;;;;11.43;7.35;;;;;;;21.61;62.72;100745.06;4997043;28;20046;-77
2023/06/18 05:10:29;;;;;;;13.55;7.22;;;;;;;21.78;63.93;100757.09;4978535;28;20524;-84
2023/06/18 05:12:57;;;;;;;10.50;6.25;;;;;;;22.28;61.21;100755.75;4978813;28;20039;-82
2023/06/18 05:15:25;;;;;;;12.13;6.47;;;;;;;22.35;60.97;100762.69;4978985;28;20046;-82
2023/06/18 05:17:53;;;;;;;9.65;6.50;;;;;;;22.64;60.23;100766.28;4979118;28;20053;-83
2023/06/18 05:20:21;;;;;;;10.45;6.68;;;;;;;22.85;59.45;100762.41;4978588;28;20069;-83
2023/06/18 05:22:52;;;;;;;7.50;6.05;;;;;;;22.90;59.18;100768.53;4962191;28;20531;-83
2023/06/18 05:25:21;;;;;;;13.43;6.47;;;;;;;23.01;58.97;100768.00;4977848;28;20062;-83
2023/06/18 05:27:49;;;;;;;10.43;6.88;;;;;;;23.07;58.04;100772.13;4995720;28;20042;-83
2023/06/18 05:30:19;;;;;;;8.48;6.90;;;;;;;23.08;57.95;100776.53;4977928;28;20408;-84
2023/06/18 05:32:50;;;;;;;8.77;7.07;;;;;;;23.11;57.69;100775.81;4973928;28;20493;-83
2023/06/18 05:35:18;;;;;;;8.73;6.43;;;;;;;23.05;58.13;100769.72;4991681;28;20050;-83
2023/06/18 05:37:52;;;;;;;8.93;6.03;;;;;;;23.07;58.34;100756.19;4978564;28;20054;-84
2023/06/18 05:40:21;;;;;;;13.63;7.00;;;;;;;23.12;58.00;100765.47;4978537;28;20484;-83
2023/06/18 05:42:50;;;;;;;10.27;6.10;;;;;;;23.20;56.49;100764.44;4979061;28;20050;-84
2023/06/18 05:45:19;;;;;;;10.52;6.53;;;;;;;23.21;56.93;100768.84;4979951;28;20043;-84
2023/06/18 05:47:47;;;;;;;11.30;6.57;;;;;;;23.19;56.94;100768.41;4995527;28;20065;-84
2023/06/18 05:50:23;;;;;;;12.20;6.55;;;;;;;23.31;57.12;100771.13;4977222;28;20046;-87
2023/06/18 05:52:51;;;;;;;9.68;6.82;;;;;;;23.32;56.54;100769.97;4996381;28;20402;-87
2023/06/18 05:55:20;;;;;;;12.60;6.85;;;;;;;23.37;55.99;100770.84;4979350;28;20058;-87
2023/06/18 05:57:50;;;;;;;9.43;5.75;;;;;;;23.53;55.21;100774.44;4976723;28;20061;-87
2023/06/18 06:00:18;;;;;;;8.02;6.88;;;;;;;23.66;55.21;100785.47;4962136;28;20050;-87
2023/06/18 06:02:50;;;;;;;8.38;6.22;;;;;;;23.76;54.67;100787.69;4967209;28;20057;-87
2023/06/18 06:05:20;;;;;;;8.70;6.60;;;;;;;23.88;54.42;100781.97;4958440;28;20054;-87
2023/06/18 06:07:50;;;;;;;8.15;5.88;;;;;;;24.02;54.78;100777.84;4975155;28;20038;-87
2023/06/18 06:10:19;;;;;;;9.27;6.15;;;;;;;24.02;54.77;100783.44;4977271;28;20054;-87
2023/06/18 06:12:49;;;;;;;9.25;6.38;;;;;;;24.09;53.85;100786.41;4957356;28;20050;-87
2023/06/18 06:15:18;;;;;;;7.80;6.05;;;;;;;24.06;53.52;100770.34;4964853;28;20045;-86
2023/06/18 06:17:46;;;;;;;8.63;6.18;;;;;;;24.13;54.42;100786.47;4977740;28;20050;-87
2023/06/18 06:20:15;;;;;;;8.88;6.40;;;;;;;24.07;54.06;100787.91;4977535;28;20038;-87
2023/06/18 06:22:45;;;;;;;8.65;6.22;;;;;;;24.23;53.12;100785.88;4980121;28;20054;-87
2023/06/18 06:25:13;;;;;;;9.63;5.60;;;;;;;24.37;52.47;100793.75;4963223;28;20046;-87
2023/06/18 06:27:43;;;;;;;8.25;5.93;;;;;;;24.56;52.24;100803.28;4994654;28;20061;-86
2023/06/18 06:30:11;;;;;;;8.50;6.15;;;;;;;24.58;52.28;100800.91;4994748;28;20046;-87
2023/06/18 06:32:40;;;;;;;7.88;5.95;;;;;;;24.72;51.31;100799.56;4996913;28;20050;-87
2023/06/18 06:35:08;;;;;;;9.00;6.13;;;;;;;24.76;51.32;100800.44;4981090;28;20046;-87
2023/06/18 06:37:36;;;;;;;7.78;5.90;;;;;;;24.87;51.15;100801.44;4976503;28;20042;-87
2023/06/18 06:40:07;;;;;;;9.98;6.03;;;;;;;25.00;51.40;100816.06;4978187;28;20046;-85
2023/06/18 06:42:37;;;;;;;7.78;5.95;;;;;;;25.06;50.16;100808.16;4995350;28;20046;-86
2023/06/18 06:45:22;;;;;;;9.73;5.90;;;;;;;25.23;50.24;100809.66;4978091;28;20050;-85
2023/06/18 06:48:22;;;;;;;9.20;6.03;;;;;;;25.34;50.27;100804.22;4953447;28;20054;-86
2023/06/18 06:51:12;;;;;;;7.60;5.45;;;;;;;25.23;50.96;100804.06;4979975;28;20062;-86
2023/06/18 06:54:05;;;;;;;8.25;6.15;;;;;;;25.37;48.62;100806.28;5012373;28;20047;-86
2023/06/18 06:56:34;;;;;;;10.10;6.25;;;;;;;25.18;51.56;100802.34;4987179;28;20748;-87
2023/06/18 06:59:02;;;;;;;8.27;6.00;;;;;;;25.35;50.66;100808.63;4979995;28;20046;-87
2023/06/18 07:01:30;;;;;;;10.25;6.47;;;;;;;25.35;49.48;100808.63;4996408;28;20058;-87
2023/06/18 07:03:58;;;;;;;9.05;6.38;;;;;;;25.20;48.94;100802.81;4977530;28;20035;-87
2023/06/18 07:06:26;;;;;;;12.15;6.35;;;;;;;25.34;48.82;100818.22;4992881;28;20043;-87
2023/06/18 07:08:54;;;;;;;10.32;6.30;;;;;;;25.42;48.58;100825.53;4994098;28;20057;-86
2023/06/18 07:11:23;;;;;;;8.13;5.70;;;;;;;25.35;49.91;100819.81;4977955;28;20054;-86
2023/06/18 07:13:51;;;;;;;8.43;5.38;;;;;;;25.50;49.71;100816.06;4993761;28;20596;-86
2023/06/18 07:16:20;;;;;;;9.07;6.18;;;;;;;25.65;48.71;100830.31;4992649;28;20057;-86
2023/06/18 07:18:49;;;;;;;9.73;6.50;;;;;;;25.63;48.90;100825.09;4994218;28;20073;-86
2023/06/18 07:21:17;;;;;;;8.02;6.00;;;;;;;25.75;48.49;100837.25;4992994;28;20046;-86
2023/06/18 07:23:45;;;;;;;7.72;5.78;;;;;;;25.79;48.76;100831.72;4975370;28;20049;-86
2023/06/18 07:26:13;;;;;;;12.48;7.55;;;;;;;25.79;49.40;100831.72;4994874;28;20046;-86
2023/06/18 07:28:41;;;;;;;7.60;6.28;;;;;;;25.87;49.31;100834.22;4994882;28;20046;-86
2023/06/18 07:31:09;;;;;;;9.23;6.50;;;;;;;26.03;48.13;100839.66;4988096;28;20054;-86
2023/06/18 07:33:37;;;;;;;10.60;6.03;;;;;;;25.97;48.75;100829.97;4990005;28;20047;-86
2023/06/18 07:36:05;;;;;;;8.63;6.38;;;;;;;26.08;49.07;100832.06;4967275;28;20461;-86
2023/06/18 07:38:56;;;;;;;9.07;6.07;;;;;;;26.22;48.74;100837.88;4977105;28;20054;-87
2023/06/18 07:41:31;;;;;;;8.60;5.35;;;;;;;26.41;48.27;100844.53;4982106;28;20049;-86
2023/06/18 07:43:59;;;;;;;9.10;6.80;;;;;;;26.41;49.51;100844.53;4981894;28;20541;-86
2023/06/18 07:46:28;;;;;;;8.82;5.95;;;;;;;26.50;48.49;100845.03;4987141;28;20126;-87
2023/06/18 07:48:56;;;;;;;7.43;5.85;;;;;;;26.53;49.25;100835.84;4966234;28;20399;-87
2023/06/18 07:51:24;;;;;;;8.50;6.55;;;;;;;26.48;48.88;100844.59;4982295;28;20062;-87
2023/06/18 07:53:52;;;;;;;7.55;5.55;;;;;;;26.64;48.63;100840.78;4989486;28;20051;-86
2023/06/18 07:56:20;;;;;;;9.77;5.70;;;;;;;26.71;49.10;100846.44;4975344;28;20042;-87
2023/06/18 07:58:48;;;;;;;7.78;6.07;;;;;;;26.84;49.20;100846.97;4969263;28;20046;-87
2023/06/18 08:01:16;;;;;;;9.93;5.97;;;;;;;26.91;48.73;100837.81;4984462;28;20057;-86
2023/06/18 08:03:44;;;;;;;8.70;6.35;;;;;;;26.90;50.70;100845.44;4959326;28;20410;-85
2023/06/18 08:06:12;;;;;;;11.82;6.07;;;;;;;26.91;49.80;100849.03;4963220;28;20396;-87
2023/06/18 08:08:40;;;;;;;6.65;5.15;;;;;;;27.01;49.26;100842.75;4983452;28;20047;-86
2023/06/18 08:11:08;;;;;;;10.18;6.15;;;;;;;26.87;50.19;100842.59;4973858;28;20383;-87
2023/06/18 08:13:36;;;;;;;6.30;5.43;;;;;;;27.07;49.89;100848.81;4991939;28;20487;-87
2023/06/18 08:16:05;;;;;;;8.60;5.72;;;;;;;27.10;49.26;100836.81;4993829;28;20716;-88
2023/06/18 08:18:34;;;;;;;10.82;6.68;;;;;;;27.16;49.40;100843.69;4993160;28;20054;-87
2023/06/18 08:21:02;;;;;;;9.40;6.60;;;;;;;26.93;49.89;100847.50;4992138;28;20046;-86
2023/06/18 08:23:30;;;;;;;7.78;6.18;;;;;;;27.11;49.28;100852.47;4974484;28;20580;-87
2023/06/18 08:25:58;;;;;;;7.95;5.78;;;;;;;27.20;50.47;100850.13;4974369;28;20413;-87
2023/06/18 08:28:26;;;;;;;7.78;5.47;;;;;;;27.40;50.45;100840.63;4992104;28;20047;-86
2023/06/18 08:30:54;;;;;;;9.35;6.03;;;;;;;27.57;49.83;100834.31;4992319;28;20042;-87
2023/06/18 08:33:22;;;;;;;8.38;5.40;;;;;;;27.67;50.57;100840.44;4992072;28;20142;-86
2023/06/18 08:35:50;;;;;;;8.35;6.07;;;;;;;27.66;49.93;100841.66;4992277;28;20042;-87
2023/06/18 08:38:18;;;;;;;7.03;5.63;;;;;;;27.73;49.40;100831.25;4992701;28;20046;-86
2023/06/18 08:40:54;;;;;;;7.07;4.88;;;;;;;27.93;48.96;100832.94;4992847;28;20038;-86
2023/06/18 08:43:26;;;;;;;4.60;4.07;;;;;;;27.98;46.66;100841.00;4992346;28;20050;-88
2023/06/18 08:45:55;;;;;;;6.47;4.40;;;;;;;27.93;46.53;100839.41;4993572;28;20042;-87
2023/06/18 08:48:28;;;;;;;4.65;4.10;;;;;;;28.00;45.91;100847.84;4992500;28;20049;-88
2023/06/18 08:51:05;;;;;;;8.23;4.82;;;;;;;27.93;46.80;100842.19;4974173;28;20073;-88
2023/06/18 08:54:05;;;;;;;5.97;4.45;;;;;;;28.03;46.87;100832.19;4972050;28;20047;-87
2023/06/18 08:56:43;;;;;;;5.10;4.60;;;;;;;28.08;47.15;100845.88;4947368;28;20074;-87
2023/06/18 08:59:12;;;;;;;6.55;4.63;;;;;;;28.17;45.98;100842.72;4986888;28;20039;-87
2023/06/18 09:01:43;;;;;;;5.05;4.15;;;;;;;28.17;46.00;100837.09;4992202;28;20053;-87
2023/06/18 09:04:12;;;;;;;4.50;4.10;;;;;;;28.37;45.17;100846.03;4993385;28;20035;-87
2023/06/18 09:06:41;;;;;;;6.13;4.25;;;;;;;28.42;44.69;100854.09;4975942;28;20046;-86
2023/06/18 09:09:11;;;;;;;4.78;3.92;;;;;;;28.53;43.96;100847.66;4975066;28;20049;-87
2023/06/18 09:11:39;;;;;;;5.13;3.92;;;;;;;28.56;44.05;100853.34;4993382;28;20489;-88
2023/06/18 09:14:09;;;;;;;8.00;4.85;;;;;;;28.43;45.39;100847.25;5002342;28;20034;-86
2023/06/18 09:16:37;;;;;;;6.22;4.75;;;;;;;28.27;45.76;100843.97;5016023;28;20026;-86
2023/06/18 09:19:05;;;;;;;6.90;4.75;;;;;;;28.40;46.40;100845.22;4996666;28;20045;-87
2023/06/18 09:21:39;;;;;;;5.55;4.22;;;;;;;28.41;46.08;100849.66;4992648;28;20050;-89
2023/06/18 09:24:16;;;;;;;6.87;4.83;;;;;;;28.41;45.21;100849.66;4992363;28;20046;-88
2023/06/18 09:26:48;;;;;;;5.15;4.63;;;;;;;28.63;44.28;100858.16;4957385;28;20305;-88
2023/06/18 09:29:16;;;;;;;5.13;4.18;;;;;;;28.61;44.64;100843.69;4960020;28;20058;-87
2023/06/18 09:31:44;;;;;;;5.78;4.28;;;;;;;28.70;44.96;100846.91;4995659;28;20042;-88
2023/06/18 09:34:18;;;;;;;5.53;4.55;;;;;;;28.69;44.34;100845.28;4995023;28;20469;-88
2023/06/18 09:36:48;;;;;;;8.57;4.68;;;;;;;28.53;43.04;100854.13;4996094;28;20050;-87
2023/06/18 09:39:22;;;;;;;5.82;4.22;;;;;;;28.52;44.28;100846.06;4978194;28;20409;-87
2023/06/18 09:41:53;;;;;;;5.25;4.05;;;;;;;28.79;43.77;100843.69;4977992;28;20512;-86
2023/06/18 09:44:22;;;;;;;4.40;3.90;;;;;;;28.81;43.09;100844.13;4971070;28;20041;-87
2023/06/18 09:46:58;;;;;;;4.93;4.15;;;;;;;29.01;42.25;100849.38;4995401;28;20050;-87
2023/06/18 09:49:30;;;;;;;5.32;4.05;;;;;;;29.01;42.47;100837.31;4978459;28;20050;-87
2023/06/18 09:51:58;;;;;;;5.85;4.53;;;;;;;29.06;42.29;100834.91;4977725;28;20062;-86
2023/06/18 09:54:40;;;;;;;4.90;4.20;;;;;;;29.21;41.70;100841.34;4978052;28;20046;-86
2023/06/18 09:57:10;;;;;;;4.93;4.03;;;;;;;29.19;41.89;100834.50;5000482;28;20053;-86
2023/06/18 09:59:38;;;;;;;4.53;4.13;;;;;;;29.14;41.84;100830.09;4995333;28;20047;-86
2023/06/18 10:02:09;;;;;;;4.68;3.97;;;;;;;29.31;41.50;100838.91;4994567;28;20046;-87
2023/06/18 10:04:37;;;;;;;5.50;4.45;;;;;;;29.22;41.55;100836.50;4995047;28;20046;-87
2023/06/18 10:07:15;;;;;;;4.28;3.85;;;;;;;29.31;42.32;100819.19;4976806;28;20035;-86
2023/06/18 10:09:46;;;;;;;5.53;4.43;;;;;;;29.38;41.92;100819.19;4994756;28;20042;-86
2023/06/18 10:12:16;;;;;;;5.70;4.47;;;;;;;29.38;41.21;100827.66;4994087;28;20057;-86
2023/06/18 10:14:45;;;;;;;7.35;4.30;;;;;;;29.30;41.51;100828.84;4994670;28;20057;-86
2023/06/18 10:17:31;;;;;;;5.15;4.03;;;;;;;29.48;39.57;100829.66;4992687;28;20397;-87
2023/06/18 10:20:04;;;;;;;5.38;4.05;;;;;;;29.68;41.22;100832.03;4977012;28;20045;-86
2023/06/18 10:22:48;;;;;;;5.45;4.07;;;;;;;29.69;40.36;100830.81;4975254;28;20050;-87
2023/06/18 10:25:16;;;;;;;5.50;4.40;;;;;;;29.73;40.29;100826.00;4985582;28;20050;-87
2023/06/18 10:27:45;;;;;;;4.15;3.75;;;;;;;29.75;41.03;100823.56;4976960;28;20053;-87
2023/06/18 10:30:14;;;;;;;5.25;4.00;;;;;;;29.48;40.85;100823.22;4994754;28;20046;-86
2023/06/18 10:32:43;;;;;;;4.30;3.85;;;;;;;29.83;41.47;100829.16;4993957;28;20509;-87
2023/06/18 10:35:13;;;;;;;4.30;3.90;;;;;;;29.77;41.17;100825.97;4976484;28;20053;-86
2023/06/18 10:37:43;;;;;;;4.20;3.78;;;;;;;29.91;41.75;100813.84;4992920;28;20054;-87
2023/06/18 10:40:12;;;;;;;5.05;4.50;;;;;;;29.97;41.37;100831.13;4994634;28;20405;-87
2023/06/18 10:42:40;;;;;;;4.70;4.07;;;;;;;30.01;41.64;100821.44;4994137;28;20052;-85
2023/06/18 10:45:15;;;;;;;4.45;3.60;;;;;;;29.92;41.85;100809.81;4994986;28;20049;-86
2023/06/18 10:47:44;;;;;;;8.73;4.18;;;;;;;29.98;43.41;100816.63;4977325;28;20043;-86
2023/06/18 10:50:15;;;;;;;4.28;3.78;;;;;;;30.18;41.59;100810.50;4994241;28;20062;-86
2023/06/18 10:52:49;;;;;;;5.88;3.90;;;;;;;30.17;41.10;100808.91;4993869;28;20053;-86
2023/06/18 10:55:20;;;;;;;4.90;4.25;;;;;;;30.27;42.19;100816.53;4994343;28;20061;-86
2023/06/18 10:58:04;;;;;;;5.40;4.35;;;;;;;30.27;41.53;100807.25;4994467;28;20073;-87
2023/06/18 11:00:34;;;;;;;4.18;3.70;;;;;;;30.36;40.85;100803.97;4994096;28;20508;-87
2023/06/18 11:03:13;;;;;;;4.07;3.67;;;;;;;30.41;41.13;100803.53;4994201;28;20492;-87
2023/06/18 11:05:53;;;;;;;4.22;3.83;;;;;;;30.31;40.95;100810.84;4976436;28;20058;-86
2023/06/18 11:08:29;;;;;;;5.07;4.57;;;;;;;30.24;40.86;100802.44;4994295;28;20474;-86
2023/06/18 11:11:07;;;;;;;5.03;4.10;;;;;;;30.20;40.91;100798.81;4993865;28;20046;-87
2023/06/18 11:13:41;;;;;;;5.20;4.30;;;;;;;30.36;41.28;100789.84;4992458;28;20409;-86
2023/06/18 11:16:12;;;;;;;10.23;4.35;;;;;;;30.56;41.30;100790.13;4994913;28;20548;-86
2023/06/18 11:18:41;;;;;;;4.90;3.90;;;;;;;30.76;40.71;100787.59;4994393;28;20046;-87
2023/06/18 11:21:17;;;;;;;5.32;4.28;;;;;;;30.90;40.60;100774.56;4974829;28;20485;-86
2023/06/18 11:23:47;;;;;;;4.45;4.03;;;;;;;31.13;40.31;100775.97;4993265;28;20397;-87
2023/06/18 11:26:19;;;;;;;4.60;4.07;;;;;;;31.29;40.00;100772.59;4972466;28;20046;-87
2023/06/18 11:28:49;;;;;;;4.20;3.70;;;;;;;31.24;41.44;100766.16;4994373;28;20513;-88
2023/06/18 11:31:17;;;;;;;5.18;4.68;;;;;;;31.21;41.19;100760.53;4995308;28;20043;-88
2023/06/18 11:33:49;;;;;;;6.00;4.40;;;;;;;31.45;40.71;100761.53;4977899;28;20046;-86
2023/06/18 11:36:18;;;;;;;6.28;4.13;;;;;;;31.18;40.12;100762.19;5000767;28;20045;-85
2023/06/18 11:38:51;;;;;;;4.45;4.03;;;;;;;31.25;41.20;100755.66;4985003;28;20047;-86